sensor_id;sensor_type;location;lat;lon;timestamp;pressure;altitude;pressure_sealevel;temperature;humidity
36454;BME280;22478;51.740;-1.314;2023-05-19T00:01:58;101381.54;;;14.65;70.04
36454;BME280;22478;51.740;-1.314;2023-05-19T00:04:26;101382.34;;;14.79;71.53
36454;BME280;22478;51.740;-1.314;2023-05-19T00:06:53;101379.45;;;15.59;66.62
36454;BME280;22478;51.740;-1.314;2023-05-19T00:09:22;101381.52;;;14.95;70.58
36454;BME280;22478;51.740;-1.314;2023-05-19T00:11:50;101379.54;;;14.53;69.21
36454;BME280;22478;51.740;-1.314;2023-05-19T00:14:19;101380.26;;;14.49;69.43
36454;BME280;22478;51.740;-1.314;2023-05-19T00:16:47;101380.08;;;14.46;70.01
36454;BME280;22478;51.740;-1.314;2023-05-19T00:19:14;101378.85;;;14.42;67.85
36454;BME280;22478;51.740;-1.314;2023-05-19T00:21:42;101377.59;;;14.20;69.75
36454;BME280;22478;51.740;-1.314;2023-05-19T00:24:09;101377.93;;;13.16;76.20
36454;BME280;22478;51.740;-1.314;2023-05-19T00:26:36;101376.66;;;13.34;75.56
36454;BME280;22478;51.740;-1.314;2023-05-19T00:29:03;101377.19;;;13.49;76.36
36454;BME280;22478;51.740;-1.314;2023-05-19T00:31:31;101382.86;;;13.92;74.48
36454;BME280;22478;51.740;-1.314;2023-05-19T00:33:59;101387.11;;;14.31;73.54
36454;BME280;22478;51.740;-1.314;2023-05-19T00:36:26;101384.39;;;14.83;70.55
36454;BME280;22478;51.740;-1.314;2023-05-19T00:38:53;101386.51;;;15.30;69.70
36454;BME280;22478;51.740;-1.314;2023-05-19T00:41:21;101388.49;;;15.07;70.80
36454;BME280;22478;51.740;-1.314;2023-05-19T00:43:48;101382.75;;;15.73;69.79
36454;BME280;22478;51.740;-1.314;2023-05-19T00:46:17;101383.96;;;14.57;70.30
36454;BME280;22478;51.740;-1.314;2023-05-19T00:48:44;101384.38;;;15.05;71.09
36454;BME280;22478;51.740;-1.314;2023-05-19T00:51:12;101382.47;;;14.82;70.26
36454;BME280;22478;51.740;-1.314;2023-05-19T00:53:40;101386.23;;;14.36;69.53
36454;BME280;22478;51.740;-1.314;2023-05-19T00:56:07;101384.51;;;13.30;76.64
36454;BME280;22478;51.740;-1.314;2023-05-19T00:58:35;101381.09;;;13.79;75.21
36454;BME280;22478;51.740;-1.314;2023-05-19T01:01:02;101374.68;;;15.19;70.23
36454;BME280;22478;51.740;-1.314;2023-05-19T01:03:30;101373.95;;;14.86;72.07
36454;BME280;22478;51.740;-1.314;2023-05-19T01:05:58;101372.37;;;14.76;72.57
36454;BME280;22478;51.740;-1.314;2023-05-19T01:08:27;101377.51;;;14.68;71.40
36454;BME280;22478;51.740;-1.314;2023-05-19T01:10:54;101382.33;;;14.03;75.64
36454;BME280;22478;51.740;-1.314;2023-05-19T01:13:21;101386.70;;;13.32;80.18
36454;BME280;22478;51.740;-1.314;2023-05-19T01:15:57;101385.02;;;13.64;76.10
36454;BME280;22478;51.740;-1.314;2023-05-19T01:18:34;101389.97;;;14.80;75.50
36454;BME280;22478;51.740;-1.314;2023-05-19T01:21:20;101392.78;;;14.06;80.31
36454;BME280;22478;51.740;-1.314;2023-05-19T01:23:58;101393.44;;;12.48;87.47
36454;BME280;22478;51.740;-1.314;2023-05-19T01:26:42;101391.30;;;11.95;95.49
36454;BME280;22478;51.740;-1.314;2023-05-19T01:29:30;101389.23;;;11.46;96.69
36454;BME280;22478;51.740;-1.314;2023-05-19T01:32:05;101381.49;;;13.55;89.62
36454;BME280;22478;51.740;-1.314;2023-05-19T01:34:37;101390.53;;;11.07;98.75
36454;BME280;22478;51.740;-1.314;2023-05-19T01:37:07;101387.84;;;13.65;87.32
36454;BME280;22478;51.740;-1.314;2023-05-19T01:39:35;101391.17;;;10.93;100.00
36454;BME280;22478;51.740;-1.314;2023-05-19T01:42:03;101379.43;;;12.91;90.07
36454;BME280;22478;51.740;-1.314;2023-05-19T01:44:32;101376.50;;;13.69;87.77
36454;BME280;22478;51.740;-1.314;2023-05-19T01:47:01;101374.98;;;12.79;90.07
36454;BME280;22478;51.740;-1.314;2023-05-19T01:49:28;101379.20;;;11.94;91.90
36454;BME280;22478;51.740;-1.314;2023-05-19T01:51:55;101380.33;;;11.19;97.49
36454;BME280;22478;51.740;-1.314;2023-05-19T01:54:23;101374.15;;;13.56;86.94
36454;BME280;22478;51.740;-1.314;2023-05-19T01:56:56;101364.68;;;13.27;87.46
36454;BME280;22478;51.740;-1.314;2023-05-19T01:59:38;101368.73;;;9.63;100.00
36454;BME280;22478;51.740;-1.314;2023-05-19T02:02:18;101364.48;;;10.36;100.00
36454;BME280;22478;51.740;-1.314;2023-05-19T02:04:54;101366.66;;;11.11;100.00
36454;BME280;22478;51.740;-1.314;2023-05-19T02:07:29;101371.34;;;11.41;97.43
36454;BME280;22478;51.740;-1.314;2023-05-19T02:10:04;101380.40;;;12.23;93.81
36454;BME280;22478;51.740;-1.314;2023-05-19T02:12:34;101380.69;;;12.61;90.56
36454;BME280;22478;51.740;-1.314;2023-05-19T02:15:05;101379.83;;;11.61;98.88
36454;BME280;22478;51.740;-1.314;2023-05-19T02:17:36;101382.72;;;10.82;100.00
36454;BME280;22478;51.740;-1.314;2023-05-19T02:20:05;101381.54;;;11.22;100.00
36454;BME280;22478;51.740;-1.314;2023-05-19T02:22:32;101374.92;;;11.63;99.86
36454;BME280;22478;51.740;-1.314;2023-05-19T02:25:00;101377.28;;;12.40;95.46
36454;BME280;22478;51.740;-1.314;2023-05-19T02:27:27;101379.04;;;13.34;90.12
36454;BME280;22478;51.740;-1.314;2023-05-19T02:29:55;101381.96;;;11.93;92.66
36454;BME280;22478;51.740;-1.314;2023-05-19T02:32:22;101381.72;;;12.34;92.27
36454;BME280;22478;51.740;-1.314;2023-05-19T02:34:49;101382.16;;;12.21;93.60
36454;BME280;22478;51.740;-1.314;2023-05-19T02:37:16;101378.76;;;14.59;82.89
36454;BME280;22478;51.740;-1.314;2023-05-19T02:39:43;101384.84;;;14.06;84.83
36454;BME280;22478;51.740;-1.314;2023-05-19T02:42:10;101389.00;;;13.83;83.60
36454;BME280;22478;51.740;-1.314;2023-05-19T02:44:37;101386.96;;;13.54;82.03
36454;BME280;22478;51.740;-1.314;2023-05-19T02:47:05;101383.54;;;12.83;85.30
36454;BME280;22478;51.740;-1.314;2023-05-19T02:49:32;101385.55;;;11.12;99.36
36454;BME280;22478;51.740;-1.314;2023-05-19T02:51:59;101383.68;;;11.29;96.52
36454;BME280;22478;51.740;-1.314;2023-05-19T02:54:27;101390.75;;;9.31;100.00
36454;BME280;22478;51.740;-1.314;2023-05-19T02:56:54;101379.00;;;11.53;98.03
36454;BME280;22478;51.740;-1.314;2023-05-19T02:59:22;101383.61;;;10.90;100.00
36454;BME280;22478;51.740;-1.314;2023-05-19T03:01:49;101381.16;;;11.20;100.00
36454;BME280;22478;51.740;-1.314;2023-05-19T03:04:16;101378.45;;;12.05;95.55
36454;BME280;22478;51.740;-1.314;2023-05-19T03:06:44;101373.59;;;13.46;87.70
36454;BME280;22478;51.740;-1.314;2023-05-19T03:09:11;101371.64;;;11.55;93.28
36454;BME280;22478;51.740;-1.314;2023-05-19T03:11:38;101371.41;;;12.11;92.65
36454;BME280;22478;51.740;-1.314;2023-05-19T03:14:05;101364.60;;;13.24;86.84
36454;BME280;22478;51.740;-1.314;2023-05-19T03:16:32;101369.24;;;10.70;100.00
36454;BME280;22478;51.740;-1.314;2023-05-19T03:18:59;101367.48;;;9.97;100.00
36454;BME280;22478;51.740;-1.314;2023-05-19T03:21:27;101361.83;;;11.40;100.00
36454;BME280;22478;51.740;-1.314;2023-05-19T03:23:54;101364.75;;;9.56;100.00
36454;BME280;22478;51.740;-1.314;2023-05-19T03:26:21;101364.47;;;9.14;100.00
36454;BME280;22478;51.740;-1.314;2023-05-19T03:28:49;101367.96;;;8.99;100.00
36454;BME280;22478;51.740;-1.314;2023-05-19T03:31:15;101369.73;;;9.18;100.00
36454;BME280;22478;51.740;-1.314;2023-05-19T03:33:42;101373.06;;;8.07;100.00
36454;BME280;22478;51.740;-1.314;2023-05-19T03:36:10;101371.22;;;9.38;100.00
36454;BME280;22478;51.740;-1.314;2023-05-19T03:38:37;101368.88;;;11.23;100.00
36454;BME280;22478;51.740;-1.314;2023-05-19T03:41:05;101372.47;;;10.94;100.00
36454;BME280;22478;51.740;-1.314;2023-05-19T03:43:32;101376.44;;;10.15;100.00
36454;BME280;22478;51.740;-1.314;2023-05-19T03:45:59;101379.81;;;9.14;100.00
36454;BME280;22478;51.740;-1.314;2023-05-19T03:48:27;101382.90;;;10.74;100.00
36454;BME280;22478;51.740;-1.314;2023-05-19T03:50:54;101385.79;;;10.47;100.00
36454;BME280;22478;51.740;-1.314;2023-05-19T03:53:22;101391.26;;;10.72;100.00
36454;BME280;22478;51.740;-1.314;2023-05-19T03:55:50;101394.91;;;8.10;100.00
36454;BME280;22478;51.740;-1.314;2023-05-19T03:58:17;101381.52;;;10.65;100.00
36454;BME280;22478;51.740;-1.314;2023-05-19T04:00:44;101367.57;;;12.52;99.52
36454;BME280;22478;51.740;-1.314;2023-05-19T04:03:11;101368.20;;;11.67;100.00
36454;BME280;22478;51.740;-1.314;2023-05-19T04:05:38;101369.12;;;8.85;100.00
36454;BME280;22478;51.740;-1.314;2023-05-19T04:08:05;101361.92;;;12.72;98.47
36454;BME280;22478;51.740;-1.314;2023-05-19T04:10:32;101360.77;;;11.10;97.56
36454;BME280;22478;51.740;-1.314;2023-05-19T04:12:59;101357.34;;;12.12;100.00
36454;BME280;22478;51.740;-1.314;2023-05-19T04:15:26;101362.13;;;10.75;100.00
36454;BME280;22478;51.740;-1.314;2023-05-19T04:17:54;101366.42;;;10.23;100.00
36454;BME280;22478;51.740;-1.314;2023-05-19T04:20:21;101370.04;;;9.80;100.00
36454;BME280;22478;51.740;-1.314;2023-05-19T04:22:48;101374.05;;;11.64;100.00
36454;BME280;22478;51.740;-1.314;2023-05-19T04:25:16;101382.98;;;10.04;100.00
36454;BME280;22478;51.740;-1.314;2023-05-19T04:27:43;101380.99;;;10.59;100.00
36454;BME280;22478;51.740;-1.314;2023-05-19T04:30:11;101378.83;;;12.34;96.92
36454;BME280;22478;51.740;-1.314;2023-05-19T04:32:38;101389.34;;;11.24;100.00
36454;BME280;22478;51.740;-1.314;2023-05-19T04:35:06;101381.61;;;11.88;96.65
36454;BME280;22478;51.740;-1.314;2023-05-19T04:37:33;101389.26;;;10.54;100.00
36454;BME280;22478;51.740;-1.314;2023-05-19T04:40:01;101384.97;;;8.73;100.00
36454;BME280;22478;51.740;-1.314;2023-05-19T04:42:28;101382.98;;;8.80;100.00
36454;BME280;22478;51.740;-1.314;2023-05-19T04:44:55;101386.76;;;11.22;100.00
36454;BME280;22478;51.740;-1.314;2023-05-19T04:47:22;101386.25;;;11.63;100.00
36454;BME280;22478;51.740;-1.314;2023-05-19T04:49:50;101382.48;;;9.21;100.00
36454;BME280;22478;51.740;-1.314;2023-05-19T04:52:17;101383.18;;;9.07;100.00
36454;BME280;22478;51.740;-1.314;2023-05-19T04:54:45;101374.17;;;9.65;100.00
36454;BME280;22478;51.740;-1.314;2023-05-19T04:57:11;101373.74;;;9.51;100.00
36454;BME280;22478;51.740;-1.314;2023-05-19T04:59:38;101378.95;;;11.14;100.00
36454;BME280;22478;51.740;-1.314;2023-05-19T05:02:06;101380.38;;;10.38;100.00
36454;BME280;22478;51.740;-1.314;2023-05-19T05:04:34;101382.73;;;11.55;100.00
36454;BME280;22478;51.740;-1.314;2023-05-19T05:07:01;101393.70;;;11.10;100.00
36454;BME280;22478;51.740;-1.314;2023-05-19T05:09:28;101401.67;;;10.87;100.00
36454;BME280;22478;51.740;-1.314;2023-05-19T05:11:56;101406.46;;;9.52;100.00
36454;BME280;22478;51.740;-1.314;2023-05-19T05:14:23;101405.80;;;10.63;100.00
36454;BME280;22478;51.740;-1.314;2023-05-19T05:16:51;101400.93;;;10.61;100.00
36454;BME280;22478;51.740;-1.314;2023-05-19T05:19:19;101405.64;;;7.27;100.00
36454;BME280;22478;51.740;-1.314;2023-05-19T05:21:47;101406.59;;;8.53;100.00
36454;BME280;22478;51.740;-1.314;2023-05-19T05:24:15;101398.79;;;9.95;100.00
36454;BME280;22478;51.740;-1.314;2023-05-19T05:26:43;101391.83;;;10.90;100.00
36454;BME280;22478;51.740;-1.314;2023-05-19T05:29:11;101395.50;;;7.69;100.00
36454;BME280;22478;51.740;-1.314;2023-05-19T05:31:38;101388.94;;;9.02;100.00
36454;BME280;22478;51.740;-1.314;2023-05-19T05:34:05;101382.85;;;8.17;100.00
36454;BME280;22478;51.740;-1.314;2023-05-19T05:36:32;101377.08;;;10.01;100.00
36454;BME280;22478;51.740;-1.314;2023-05-19T05:39:00;101369.97;;;11.39;100.00
36454;BME280;22478;51.740;-1.314;2023-05-19T05:41:27;101364.98;;;12.24;100.00
36454;BME280;22478;51.740;-1.314;2023-05-19T05:43:54;101368.25;;;12.15;100.00
36454;BME280;22478;51.740;-1.314;2023-05-19T05:46:21;101368.95;;;11.89;100.00
36454;BME280;22478;51.740;-1.314;2023-05-19T05:48:49;101366.28;;;12.52;98.42
36454;BME280;22478;51.740;-1.314;2023-05-19T05:51:17;101369.96;;;11.86;94.82
36454;BME280;22478;51.740;-1.314;2023-05-19T05:53:50;101374.20;;;11.55;99.67
36454;BME280;22478;51.740;-1.314;2023-05-19T05:56:19;101380.67;;;11.59;100.00
36454;BME280;22478;51.740;-1.314;2023-05-19T05:58:46;101382.96;;;12.79;95.86
36454;BME280;22478;51.740;-1.314;2023-05-19T06:01:14;101387.03;;;12.55;91.01
36454;BME280;22478;51.740;-1.314;2023-05-19T06:03:42;101383.75;;;13.34;85.12
36454;BME280;22478;51.740;-1.314;2023-05-19T06:06:10;101385.53;;;13.86;86.08
36454;BME280;22478;51.740;-1.314;2023-05-19T06:08:38;101381.12;;;12.82;89.06
36454;BME280;22478;51.740;-1.314;2023-05-19T06:11:05;101382.23;;;12.72;86.80
36454;BME280;22478;51.740;-1.314;2023-05-19T06:13:33;101380.74;;;12.88;87.40
36454;BME280;22478;51.740;-1.314;2023-05-19T06:16:00;101383.63;;;12.46;86.93
36454;BME280;22478;51.740;-1.314;2023-05-19T06:18:27;101388.22;;;12.71;85.39
36454;BME280;22478;51.740;-1.314;2023-05-19T06:20:54;101393.81;;;12.65;88.21
36454;BME280;22478;51.740;-1.314;2023-05-19T06:23:22;101388.74;;;13.63;85.27
36454;BME280;22478;51.740;-1.314;2023-05-19T06:25:49;101400.01;;;11.29;93.33
36454;BME280;22478;51.740;-1.314;2023-05-19T06:28:17;101408.27;;;9.94;100.00
36454;BME280;22478;51.740;-1.314;2023-05-19T06:30:44;101401.83;;;12.58;92.23
36454;BME280;22478;51.740;-1.314;2023-05-19T06:33:11;101411.37;;;10.42;100.00
36454;BME280;22478;51.740;-1.314;2023-05-19T06:35:39;101406.28;;;13.19;91.08
36454;BME280;22478;51.740;-1.314;2023-05-19T06:38:07;101402.08;;;11.87;100.00
36454;BME280;22478;51.740;-1.314;2023-05-19T06:40:35;101410.30;;;10.37;100.00
36454;BME280;22478;51.740;-1.314;2023-05-19T06:43:02;101412.42;;;10.11;100.00
36454;BME280;22478;51.740;-1.314;2023-05-19T06:45:29;101406.03;;;10.99;100.00
36454;BME280;22478;51.740;-1.314;2023-05-19T06:47:56;101397.59;;;12.06;100.00
36454;BME280;22478;51.740;-1.314;2023-05-19T06:50:24;101400.13;;;11.28;100.00
36454;BME280;22478;51.740;-1.314;2023-05-19T06:52:51;101393.15;;;12.68;96.91
36454;BME280;22478;51.740;-1.314;2023-05-19T06:55:19;101397.17;;;11.74;97.43
36454;BME280;22478;51.740;-1.314;2023-05-19T06:57:46;101393.73;;;13.23;90.99
36454;BME280;22478;51.740;-1.314;2023-05-19T07:00:14;101384.37;;;13.84;82.73
36454;BME280;22478;51.740;-1.314;2023-05-19T07:02:41;101383.85;;;14.80;79.13
36454;BME280;22478;51.740;-1.314;2023-05-19T07:05:09;101390.38;;;14.23;83.76
36454;BME280;22478;51.740;-1.314;2023-05-19T07:07:36;101392.39;;;15.17;77.42
36454;BME280;22478;51.740;-1.314;2023-05-19T07:10:04;101396.78;;;13.76;84.65
36454;BME280;22478;51.740;-1.314;2023-05-19T07:12:32;101401.80;;;11.85;91.56
36454;BME280;22478;51.740;-1.314;2023-05-19T07:14:59;101400.91;;;13.40;88.46
36454;BME280;22478;51.740;-1.314;2023-05-19T07:17:26;101403.55;;;12.60;90.64
36454;BME280;22478;51.740;-1.314;2023-05-19T07:19:53;101403.47;;;12.87;90.88
36454;BME280;22478;51.740;-1.314;2023-05-19T07:22:20;101400.38;;;14.85;80.91
36454;BME280;22478;51.740;-1.314;2023-05-19T07:24:48;101401.65;;;14.55;80.37
36454;BME280;22478;51.740;-1.314;2023-05-19T07:27:15;101408.38;;;14.41;85.54
36454;BME280;22478;51.740;-1.314;2023-05-19T07:29:43;101412.98;;;12.54;90.52
36454;BME280;22478;51.740;-1.314;2023-05-19T07:32:10;101418.16;;;12.11;93.68
36454;BME280;22478;51.740;-1.314;2023-05-19T07:34:38;101427.30;;;11.27;100.00
36454;BME280;22478;51.740;-1.314;2023-05-19T07:37:06;101423.92;;;11.31;100.00
36454;BME280;22478;51.740;-1.314;2023-05-19T07:39:34;101420.37;;;13.45;95.66
36454;BME280;22478;51.740;-1.314;2023-05-19T07:42:02;101434.25;;;7.58;100.00
36454;BME280;22478;51.740;-1.314;2023-05-19T07:44:29;101433.73;;;9.34;100.00
36454;BME280;22478;51.740;-1.314;2023-05-19T07:46:56;101434.82;;;11.37;100.00
36454;BME280;22478;51.740;-1.314;2023-05-19T07:49:23;101429.24;;;13.20;95.70
36454;BME280;22478;51.740;-1.314;2023-05-19T07:51:50;101441.82;;;10.31;100.00
36454;BME280;22478;51.740;-1.314;2023-05-19T07:54:18;101445.55;;;10.53;100.00
36454;BME280;22478;51.740;-1.314;2023-05-19T07:56:46;101436.68;;;12.84;97.67
36454;BME280;22478;51.740;-1.314;2023-05-19T07:59:14;101437.50;;;13.63;95.11
36454;BME280;22478;51.740;-1.314;2023-05-19T08:01:42;101436.17;;;12.78;92.23
36454;BME280;22478;51.740;-1.314;2023-05-19T08:04:09;101432.45;;;13.85;86.56
36454;BME280;22478;51.740;-1.314;2023-05-19T08:06:36;101449.05;;;10.12;100.00
36454;BME280;22478;51.740;-1.314;2023-05-19T08:09:04;101450.89;;;10.51;100.00
36454;BME280;22478;51.740;-1.314;2023-05-19T08:11:31;101443.63;;;11.97;100.00
36454;BME280;22478;51.740;-1.314;2023-05-19T08:13:58;101454.37;;;10.88;100.00
36454;BME280;22478;51.740;-1.314;2023-05-19T08:16:25;101446.42;;;12.40;100.00
36454;BME280;22478;51.740;-1.314;2023-05-19T08:18:52;101446.45;;;12.51;99.79
36454;BME280;22478;51.740;-1.314;2023-05-19T08:21:20;101445.95;;;12.22;100.00
36454;BME280;22478;51.740;-1.314;2023-05-19T08:23:46;101442.16;;;13.18;93.74
36454;BME280;22478;51.740;-1.314;2023-05-19T08:26:14;101438.77;;;12.61;96.20
36454;BME280;22478;51.740;-1.314;2023-05-19T08:28:41;101438.70;;;11.56;99.85
36454;BME280;22478;51.740;-1.314;2023-05-19T08:31:09;101436.61;;;11.24;100.00
36454;BME280;22478;51.740;-1.314;2023-05-19T08:33:36;101430.59;;;10.93;100.00
36454;BME280;22478;51.740;-1.314;2023-05-19T08:36:03;101411.96;;;14.77;86.55
36454;BME280;22478;51.740;-1.314;2023-05-19T08:38:31;101405.63;;;14.67;84.48
36454;BME280;22478;51.740;-1.314;2023-05-19T08:40:59;101402.23;;;11.77;98.35
36454;BME280;22478;51.740;-1.314;2023-05-19T08:43:27;101393.58;;;14.37;85.03
36454;BME280;22478;51.740;-1.314;2023-05-19T08:45:54;101388.20;;;14.39;83.59
36454;BME280;22478;51.740;-1.314;2023-05-19T08:48:21;101388.85;;;15.40;74.67
36454;BME280;22478;51.740;-1.314;2023-05-19T08:50:56;101383.28;;;15.91;73.78
36454;BME280;22478;51.740;-1.314;2023-05-19T08:53:34;101379.94;;;15.59;71.36
36454;BME280;22478;51.740;-1.314;2023-05-19T08:56:07;101382.29;;;13.84;81.31
36454;BME280;22478;51.740;-1.314;2023-05-19T08:58:37;101383.04;;;15.44;74.45
36454;BME280;22478;51.740;-1.314;2023-05-19T09:01:06;101386.68;;;14.23;78.73
36454;BME280;22478;51.740;-1.314;2023-05-19T09:03:34;101388.04;;;13.29;76.88
36454;BME280;22478;51.740;-1.314;2023-05-19T09:06:01;101379.51;;;18.87;62.21
36454;BME280;22478;51.740;-1.314;2023-05-19T09:08:30;101381.46;;;19.99;58.07
36454;BME280;22478;51.740;-1.314;2023-05-19T09:10:57;101382.16;;;20.62;54.55
36454;BME280;22478;51.740;-1.314;2023-05-19T09:13:24;101379.90;;;20.53;53.18
36454;BME280;22478;51.740;-1.314;2023-05-19T09:15:52;101386.54;;;19.13;53.14
36454;BME280;22478;51.740;-1.314;2023-05-19T09:18:23;101388.71;;;14.42;65.75
36454;BME280;22478;51.740;-1.314;2023-05-19T09:20:55;101382.83;;;19.20;57.47
36454;BME280;22478;51.740;-1.314;2023-05-19T09:23:23;101375.67;;;21.16;50.84
36454;BME280;22478;51.740;-1.314;2023-05-19T09:25:52;101378.40;;;22.05;48.41
36454;BME280;22478;51.740;-1.314;2023-05-19T09:28:25;101381.90;;;19.18;52.64
36454;BME280;22478;51.740;-1.314;2023-05-19T09:31:00;101396.20;;;13.13;71.14
36454;BME280;22478;51.740;-1.314;2023-05-19T09:33:29;101387.25;;;16.30;66.26
36454;BME280;22478;51.740;-1.314;2023-05-19T09:35:56;101388.55;;;16.81;65.38
36454;BME280;22478;51.740;-1.314;2023-05-19T09:38:23;101382.59;;;19.58;57.05
36454;BME280;22478;51.740;-1.314;2023-05-19T09:40:51;101381.25;;;18.11;58.34
36454;BME280;22478;51.740;-1.314;2023-05-19T09:43:19;101381.49;;;17.27;59.49
36454;BME280;22478;51.740;-1.314;2023-05-19T09:45:47;101388.96;;;16.42;66.11
36454;BME280;22478;51.740;-1.314;2023-05-19T09:48:15;101390.55;;;18.00;63.85
36454;BME280;22478;51.740;-1.314;2023-05-19T09:50:42;101397.41;;;12.07;86.31
36454;BME280;22478;51.740;-1.314;2023-05-19T09:53:12;101394.59;;;14.47;79.49
36454;BME280;22478;51.740;-1.314;2023-05-19T09:55:39;101387.86;;;15.49;76.01
36454;BME280;22478;51.740;-1.314;2023-05-19T09:58:07;101377.70;;;18.33;63.04
36454;BME280;22478;51.740;-1.314;2023-05-19T10:00:35;101392.13;;;13.32;75.27
36454;BME280;22478;51.740;-1.314;2023-05-19T10:03:04;101386.97;;;16.45;64.80
36454;BME280;22478;51.740;-1.314;2023-05-19T10:05:32;101387.06;;;17.38;64.29
36454;BME280;22478;51.740;-1.314;2023-05-19T10:07:59;101393.39;;;14.97;67.17
36454;BME280;22478;51.740;-1.314;2023-05-19T10:10:28;101389.90;;;16.64;66.46
36454;BME280;22478;51.740;-1.314;2023-05-19T10:12:55;101397.19;;;14.84;73.70
36454;BME280;22478;51.740;-1.314;2023-05-19T10:15:23;101387.77;;;16.22;63.88
36454;BME280;22478;51.740;-1.314;2023-05-19T10:17:51;101386.69;;;15.98;65.95
36454;BME280;22478;51.740;-1.314;2023-05-19T10:20:19;101381.32;;;18.71;60.10
36454;BME280;22478;51.740;-1.314;2023-05-19T10:22:47;101388.56;;;15.92;66.61
36454;BME280;22478;51.740;-1.314;2023-05-19T10:25:14;101386.01;;;16.78;67.42
36454;BME280;22478;51.740;-1.314;2023-05-19T10:27:45;101382.67;;;19.77;55.73
36454;BME280;22478;51.740;-1.314;2023-05-19T10:30:19;101382.69;;;16.74;68.69
36454;BME280;22478;51.740;-1.314;2023-05-19T10:32:48;101375.11;;;18.65;61.77
36454;BME280;22478;51.740;-1.314;2023-05-19T10:35:26;101377.46;;;16.10;67.37
36454;BME280;22478;51.740;-1.314;2023-05-19T10:38:05;101369.23;;;18.67;60.21
36454;BME280;22478;51.740;-1.314;2023-05-19T10:40:38;101369.07;;;16.30;64.27
36454;BME280;22478;51.740;-1.314;2023-05-19T10:43:14;101367.11;;;18.72;58.07
36454;BME280;22478;51.740;-1.314;2023-05-19T10:45:48;101364.69;;;17.26;60.69
36454;BME280;22478;51.740;-1.314;2023-05-19T10:48:19;101364.71;;;17.33;60.55
36454;BME280;22478;51.740;-1.314;2023-05-19T10:50:47;101367.22;;;19.72;56.85
36454;BME280;22478;51.740;-1.314;2023-05-19T10:53:16;101363.68;;;19.51;54.53
36454;BME280;22478;51.740;-1.314;2023-05-19T10:55:44;101363.05;;;18.00;55.72
36454;BME280;22478;51.740;-1.314;2023-05-19T10:58:12;101363.45;;;15.18;64.97
36454;BME280;22478;51.740;-1.314;2023-05-19T11:00:39;101354.49;;;18.61;56.69
36454;BME280;22478;51.740;-1.314;2023-05-19T11:03:15;101357.04;;;15.57;62.56
36454;BME280;22478;51.740;-1.314;2023-05-19T11:05:43;101355.45;;;15.82;63.76
36454;BME280;22478;51.740;-1.314;2023-05-19T11:08:10;101352.40;;;17.80;60.14
36454;BME280;22478;51.740;-1.314;2023-05-19T11:10:38;101348.79;;;18.74;58.17
36454;BME280;22478;51.740;-1.314;2023-05-19T11:13:05;101349.77;;;18.28;60.39
36454;BME280;22478;51.740;-1.314;2023-05-19T11:15:34;101352.05;;;19.51;55.61
36454;BME280;22478;51.740;-1.314;2023-05-19T11:18:03;101350.63;;;16.31;64.02
36454;BME280;22478;51.740;-1.314;2023-05-19T11:20:30;101357.27;;;13.47;74.88
36454;BME280;22478;51.740;-1.314;2023-05-19T11:23:04;101357.54;;;14.30;79.95
36454;BME280;22478;51.740;-1.314;2023-05-19T11:25:41;101345.59;;;16.98;69.58
36454;BME280;22478;51.740;-1.314;2023-05-19T11:28:10;101341.76;;;17.88;69.69
36454;BME280;22478;51.740;-1.314;2023-05-19T11:30:38;101347.49;;;13.18;89.54
36454;BME280;22478;51.740;-1.314;2023-05-19T11:33:08;101349.35;;;13.56;85.35
36454;BME280;22478;51.740;-1.314;2023-05-19T11:35:37;101337.74;;;16.64;76.14
36454;BME280;22478;51.740;-1.314;2023-05-19T11:38:05;101336.06;;;16.58;76.97
36454;BME280;22478;51.740;-1.314;2023-05-19T11:40:32;101337.59;;;15.94;86.05
36454;BME280;22478;51.740;-1.314;2023-05-19T11:43:00;101342.03;;;15.48;89.93
36454;BME280;22478;51.740;-1.314;2023-05-19T11:45:28;101349.80;;;13.64;100.00
36454;BME280;22478;51.740;-1.314;2023-05-19T11:47:57;101347.51;;;15.86;100.00
36454;BME280;22478;51.740;-1.314;2023-05-19T11:50:25;101352.60;;;15.05;100.00
36454;BME280;22478;51.740;-1.314;2023-05-19T11:52:53;101351.81;;;15.94;95.10
36454;BME280;22478;51.740;-1.314;2023-05-19T11:55:21;101368.90;;;11.22;100.00
36454;BME280;22478;51.740;-1.314;2023-05-19T11:57:55;101379.74;;;11.38;100.00
36454;BME280;22478;51.740;-1.314;2023-05-19T12:00:23;101386.29;;;11.45;100.00
36454;BME280;22478;51.740;-1.314;2023-05-19T12:02:50;101413.06;;;9.11;100.00
36454;BME280;22478;51.740;-1.314;2023-05-19T12:05:19;101423.05;;;9.94;100.00
36454;BME280;22478;51.740;-1.314;2023-05-19T12:07:47;101432.23;;;8.89;100.00
36454;BME280;22478;51.740;-1.314;2023-05-19T12:10:15;101430.96;;;9.64;100.00
36454;BME280;22478;51.740;-1.314;2023-05-19T12:12:42;101429.72;;;7.53;100.00
36454;BME280;22478;51.740;-1.314;2023-05-19T12:15:10;101436.38;;;7.36;100.00
36454;BME280;22478;51.740;-1.314;2023-05-19T12:17:37;101437.73;;;7.07;100.00
36454;BME280;22478;51.740;-1.314;2023-05-19T12:20:05;101425.50;;;9.85;100.00
36454;BME280;22478;51.740;-1.314;2023-05-19T12:22:33;101426.92;;;9.43;100.00
36454;BME280;22478;51.740;-1.314;2023-05-19T12:25:01;101423.66;;;9.17;100.00
36454;BME280;22478;51.740;-1.314;2023-05-19T12:27:29;101424.85;;;7.64;100.00
36454;BME280;22478;51.740;-1.314;2023-05-19T12:30:03;101424.51;;;8.92;100.00
36454;BME280;22478;51.740;-1.314;2023-05-19T12:32:33;101416.15;;;8.03;100.00
36454;BME280;22478;51.740;-1.314;2023-05-19T12:35:01;101410.73;;;8.16;100.00
36454;BME280;22478;51.740;-1.314;2023-05-19T12:37:29;101411.82;;;9.45;100.00
36454;BME280;22478;51.740;-1.314;2023-05-19T12:39:57;101416.74;;;10.89;100.00
36454;BME280;22478;51.740;-1.314;2023-05-19T12:42:26;101416.71;;;11.63;100.00
36454;BME280;22478;51.740;-1.314;2023-05-19T12:44:53;101415.49;;;11.34;100.00